createdAt,value
2018-03-26T00:00:12.310Z,99039.05
2018-03-26T00:02:45.295Z,99043.38
2018-03-26T00:05:18.192Z,99045.38
2018-03-26T00:07:52.082Z,99051.80
2018-03-26T00:10:25.059Z,99050.59
2018-03-26T00:12:58.556Z,99055.83
2018-03-26T00:15:32.444Z,99049.30
2018-03-26T00:18:05.705Z,99049.00
2018-03-26T00:20:38.586Z,99043.90
2018-03-26T00:23:12.178Z,99044.68
2018-03-26T00:25:45.431Z,99046.50
2018-03-26T00:28:18.639Z,99048.97
2018-03-26T00:30:52.321Z,99048.94
2018-03-26T00:33:25.583Z,99041.00
2018-03-26T00:35:58.859Z,99045.39
2018-03-26T00:38:32.396Z,99047.22
2018-03-26T00:41:05.297Z,99045.59
2018-03-26T00:43:38.601Z,99038.08
2018-03-26T00:46:12.000Z,99047.34
2018-03-26T00:48:45.715Z,99049.40
2018-03-26T00:51:21.793Z,99052.78
2018-03-26T00:53:55.443Z,99053.59
2018-03-26T00:56:29.126Z,99051.12
2018-03-26T00:59:02.449Z,99049.81
2018-03-26T01:01:35.817Z,99055.28
2018-03-26T01:04:09.259Z,99053.45
2018-03-26T01:06:42.740Z,99058.88
2018-03-26T01:09:16.042Z,99059.17
2018-03-26T01:11:50.069Z,99063.56
2018-03-26T01:14:23.624Z,99067.17
2018-03-26T01:16:57.231Z,99066.09
2018-03-26T01:19:30.727Z,99067.76
2018-03-26T01:22:03.598Z,99064.41
2018-03-26T01:24:36.907Z,99061.13
2018-03-26T01:27:10.223Z,99062.82
2018-03-26T01:29:43.384Z,99071.80
2018-03-26T01:32:16.411Z,99064.71
2018-03-26T01:34:50.486Z,99070.05
2018-03-26T01:37:24.701Z,99064.03
2018-03-26T01:39:58.177Z,99068.87
2018-03-26T01:42:30.999Z,99065.56
2018-03-26T01:45:04.295Z,99067.97
2018-03-26T01:47:37.540Z,99067.86
2018-03-26T01:50:10.438Z,99069.17
2018-03-26T01:52:44.609Z,99059.80
2018-03-26T01:55:17.510Z,99065.45
2018-03-26T01:57:50.611Z,99074.20
2018-03-26T02:00:26.411Z,99020.65
2018-03-26T02:02:59.307Z,99072.71
2018-03-26T02:05:32.198Z,99078.46
2018-03-26T02:08:06.237Z,99071.23
2018-03-26T02:10:39.134Z,99072.94
2018-03-26T02:13:13.359Z,99073.62
2018-03-26T02:15:48.972Z,99077.42
2018-03-26T02:18:23.170Z,99079.77
2018-03-26T02:20:56.333Z,99062.52
2018-03-26T02:23:29.618Z,99085.13
2018-03-26T02:26:02.457Z,99082.88
2018-03-26T02:28:35.870Z,99082.95
2018-03-26T02:31:09.276Z,99084.38
2018-03-26T02:33:42.086Z,99080.31
2018-03-26T02:36:14.940Z,99077.67
2018-03-26T02:41:30.033Z,99052.56
2018-03-26T02:44:03.083Z,99086.34
2018-03-26T02:46:36.112Z,99081.44
2018-03-26T02:49:10.284Z,99085.83
2018-03-26T02:51:43.582Z,99082.52
2018-03-26T02:54:16.580Z,99087.14
2018-03-26T02:56:50.006Z,99087.23
2018-03-26T02:59:22.956Z,99088.34
2018-03-26T03:01:56.545Z,99090.93
2018-03-26T03:04:30.710Z,99089.73
2018-03-26T03:07:04.073Z,99097.66
2018-03-26T03:09:37.791Z,99099.94
2018-03-26T03:12:11.079Z,99100.06
2018-03-26T03:14:43.958Z,99095.86
2018-03-26T03:17:16.935Z,99101.39
2018-03-26T03:19:50.227Z,99094.02
2018-03-26T03:22:23.166Z,99091.29
2018-03-26T03:24:56.321Z,99090.83
2018-03-26T03:27:29.213Z,99102.39
2018-03-26T03:30:02.235Z,99105.06
2018-03-26T03:32:35.439Z,99102.81
2018-03-26T03:35:08.358Z,99102.73
2018-03-26T03:37:41.334Z,99099.64
2018-03-26T03:40:14.750Z,99108.31
2018-03-26T03:42:47.768Z,99106.14
2018-03-26T03:45:21.211Z,99107.95
2018-03-26T03:47:55.569Z,99116.12
2018-03-26T03:50:29.795Z,99124.08
2018-03-26T03:53:02.679Z,99127.56
2018-03-26T03:55:36.070Z,99119.20
2018-03-26T03:58:09.027Z,99122.09
2018-03-26T04:00:42.149Z,99126.08
2018-03-26T04:03:15.249Z,99123.14
2018-03-26T04:05:48.701Z,99116.67
2018-03-26T04:08:22.155Z,99115.91
2018-03-26T04:10:55.308Z,99120.27
2018-03-26T04:13:28.666Z,99121.17
2018-03-26T04:16:01.848Z,99116.52
2018-03-26T04:18:34.684Z,99119.53
2018-03-26T04:21:08.315Z,99117.36
2018-03-26T04:23:42.097Z,99122.13
2018-03-26T04:26:15.118Z,99120.25
2018-03-26T04:28:48.174Z,99107.64
2018-03-26T04:31:21.837Z,99121.23
2018-03-26T04:33:54.738Z,99124.97
2018-03-26T04:36:27.781Z,99128.88
2018-03-26T04:39:00.981Z,99132.19
2018-03-26T04:41:34.593Z,99129.69
2018-03-26T04:44:07.515Z,99137.73
2018-03-26T04:46:40.967Z,99146.48
2018-03-26T04:49:14.304Z,99148.80
2018-03-26T04:51:47.967Z,99142.86
2018-03-26T04:54:21.116Z,99155.31
2018-03-26T04:56:54.359Z,99158.60
2018-03-26T04:59:27.521Z,99162.20
2018-03-26T05:02:00.481Z,99161.17
2018-03-26T05:04:33.720Z,99152.38
2018-03-26T05:07:07.386Z,99156.28
2018-03-26T05:09:41.452Z,99174.05
2018-03-26T05:12:15.551Z,99164.09
2018-03-26T05:14:48.888Z,99169.40
2018-03-26T05:17:22.446Z,99168.80
2018-03-26T05:19:56.135Z,99167.38
2018-03-26T05:22:30.691Z,99167.64
2018-03-26T05:25:04.699Z,99175.98
2018-03-26T05:27:38.180Z,99173.08
2018-03-26T05:30:12.413Z,99171.63
2018-03-26T05:32:46.115Z,99173.10
2018-03-26T05:35:19.767Z,99175.64
2018-03-26T05:37:56.470Z,99175.94
2018-03-26T05:40:31.800Z,99180.56
2018-03-26T05:44:35.447Z,99180.89
2018-03-26T05:47:11.158Z,99191.58
2018-03-26T05:49:44.211Z,99189.73
2018-03-26T05:52:18.122Z,99198.09
2018-03-26T05:54:51.816Z,99201.91
2018-03-26T05:57:26.091Z,99197.98
2018-03-26T05:59:59.267Z,99198.17
2018-03-26T06:02:33.436Z,99204.75
2018-03-26T06:05:06.881Z,99209.73
2018-03-26T06:07:40.126Z,99205.78
2018-03-26T06:10:14.725Z,99208.56
2018-03-26T06:12:48.187Z,99204.00
2018-03-26T06:15:21.605Z,99209.86
2018-03-26T06:17:56.452Z,99214.26
2018-03-26T06:20:30.169Z,99216.99
2018-03-26T06:23:06.977Z,99213.90
2018-03-26T06:25:40.441Z,99214.35
2018-03-26T06:28:15.610Z,99218.30
2018-03-26T06:30:49.162Z,99224.05
2018-03-26T06:33:22.504Z,99221.08
2018-03-26T06:35:56.182Z,99231.98
2018-03-26T06:38:29.722Z,99216.33
2018-03-26T06:41:03.525Z,99224.42
2018-03-26T06:43:40.203Z,99221.55
2018-03-26T06:46:15.432Z,99225.38
2018-03-26T06:48:48.573Z,99228.33
2018-03-26T06:51:21.831Z,99229.32
2018-03-26T06:53:55.609Z,99235.50
2018-03-26T06:56:28.792Z,99232.00
2018-03-26T06:59:01.923Z,99228.55
2018-03-26T07:01:35.187Z,99234.68
2018-03-26T07:04:10.529Z,99236.97
2018-03-26T07:06:45.319Z,99235.14
2018-03-26T07:09:18.612Z,99231.68
2018-03-26T07:11:53.589Z,99233.27
2018-03-26T07:14:27.028Z,99229.73
2018-03-26T07:17:00.751Z,99237.74
2018-03-26T07:19:34.705Z,99235.70
2018-03-26T07:22:07.701Z,99238.69
2018-03-26T07:24:42.034Z,99242.59
2018-03-26T07:27:15.862Z,99244.55
2018-03-26T07:29:49.068Z,99245.73
2018-03-26T07:32:22.894Z,99237.20
2018-03-26T07:34:56.034Z,99236.17
2018-03-26T07:37:29.064Z,99231.95
2018-03-26T07:40:07.722Z,99240.77
2018-03-26T07:42:41.852Z,99245.16
2018-03-26T07:45:17.672Z,99241.42
2018-03-26T07:47:51.892Z,99239.42
2018-03-26T07:50:25.705Z,99242.84
2018-03-26T07:52:59.397Z,99241.26
2018-03-26T07:55:32.868Z,99249.99
2018-03-26T07:58:07.754Z,99253.55
2018-03-26T08:00:42.287Z,99260.55
2018-03-26T08:03:18.129Z,99258.48
2018-03-26T08:05:51.626Z,99246.22
2018-03-26T08:08:25.301Z,99251.28
2018-03-26T08:10:58.360Z,99263.01
2018-03-26T08:13:32.085Z,99254.52
2018-03-26T08:16:06.355Z,99271.13
2018-03-26T08:18:39.417Z,99283.36
2018-03-26T08:21:14.667Z,99278.00
2018-03-26T08:23:50.710Z,99279.24
2018-03-26T08:26:24.297Z,99292.81
2018-03-26T08:28:57.621Z,99293.20
2018-03-26T08:31:31.816Z,99288.89
2018-03-26T08:34:04.882Z,99284.70
2018-03-26T08:36:37.997Z,99287.69
2018-03-26T08:39:11.885Z,99296.62
2018-03-26T08:41:46.204Z,99295.13
2018-03-26T08:44:19.600Z,99307.17
2018-03-26T08:46:53.716Z,99288.93
2018-03-26T08:49:27.673Z,99286.13
2018-03-26T08:52:00.929Z,99304.86
2018-03-26T08:54:34.678Z,99303.08
2018-03-26T08:57:08.028Z,99309.88
2018-03-26T08:59:41.219Z,99315.17
2018-03-26T09:02:15.901Z,99308.20
2018-03-26T09:04:50.074Z,99307.52
2018-03-26T09:07:23.428Z,99314.87
2018-03-26T09:09:59.964Z,99326.88
2018-03-26T09:12:36.139Z,99326.72
2018-03-26T09:15:09.600Z,99319.83
2018-03-26T09:17:43.888Z,99319.09
2018-03-26T09:20:18.314Z,99322.37
2018-03-26T09:22:51.449Z,99320.45
2018-03-26T09:25:30.241Z,99314.52
2018-03-26T09:28:04.075Z,99320.72
2018-03-26T09:30:38.600Z,99330.25
2018-03-26T09:33:13.087Z,99323.63
2018-03-26T09:35:46.665Z,99325.13
2018-03-26T09:38:42.743Z,99308.22
2018-03-26T09:41:19.818Z,99326.44
2018-03-26T09:43:52.885Z,99330.45
2018-03-26T09:46:26.199Z,99333.03
2018-03-26T09:49:02.354Z,99331.44
2018-03-26T09:51:36.058Z,99342.37
2018-03-26T09:54:09.614Z,99351.23
2018-03-26T09:56:43.888Z,99349.06
2018-03-26T09:59:18.005Z,99352.52
2018-03-26T10:01:55.479Z,99346.15
2018-03-26T10:04:28.685Z,99343.06
2018-03-26T10:07:04.098Z,99347.69
2018-03-26T10:09:37.388Z,99342.88
2018-03-26T10:12:11.808Z,99343.84
2018-03-26T10:14:45.825Z,99345.92
2018-03-26T10:17:19.439Z,99348.69
2018-03-26T10:19:52.863Z,99348.16
2018-03-26T10:22:26.264Z,99357.92
2018-03-26T10:25:05.245Z,99359.38
2018-03-26T10:27:40.765Z,99351.22
2018-03-26T10:30:15.731Z,99365.43
2018-03-26T10:32:49.350Z,99361.13
2018-03-26T10:35:23.096Z,99372.05
2018-03-26T10:37:56.650Z,99373.67
2018-03-26T10:40:30.131Z,99374.70
2018-03-26T10:43:14.669Z,99374.88
2018-03-26T10:46:00.629Z,99382.78
2018-03-26T10:48:39.512Z,99386.67
2018-03-26T10:51:12.933Z,99381.58
2018-03-26T10:53:46.976Z,99379.34
2018-03-26T10:56:22.099Z,99379.28
2018-03-26T10:58:56.031Z,99388.08
2018-03-26T11:01:30.069Z,99379.47
2018-03-26T11:04:03.514Z,99389.81
2018-03-26T11:06:37.336Z,99383.96
2018-03-26T11:09:14.230Z,99388.29
2018-03-26T11:11:48.521Z,99390.16
2018-03-26T11:14:21.581Z,99390.15
2018-03-26T11:16:54.792Z,99380.09
2018-03-26T11:19:29.613Z,99388.97
2018-03-26T11:22:11.098Z,99395.73
2018-03-26T11:24:45.078Z,99389.69
2018-03-26T11:27:18.670Z,99389.39
2018-03-26T11:29:53.972Z,99395.63
2018-03-26T11:32:27.479Z,99393.39
2018-03-26T11:35:00.741Z,99390.42
2018-03-26T11:37:34.535Z,99395.32
2018-03-26T11:40:08.903Z,99393.57
2018-03-26T11:42:43.788Z,99399.20
2018-03-26T11:45:17.333Z,99394.77
2018-03-26T11:47:51.170Z,99397.68
2018-03-26T11:50:24.970Z,99392.94
2018-03-26T11:52:58.463Z,99402.05
2018-03-26T11:55:32.126Z,99399.34
2018-03-26T11:58:05.544Z,99399.14
2018-03-26T12:00:40.912Z,99407.78
2018-03-26T12:03:14.858Z,99408.53
2018-03-26T12:05:48.024Z,99408.05
2018-03-26T12:08:21.146Z,99407.91
2018-03-26T12:10:55.511Z,99407.59
2018-03-26T12:13:28.593Z,99403.84
2018-03-26T12:16:01.706Z,99400.61
2018-03-26T12:18:37.977Z,99407.41
2018-03-26T12:21:11.457Z,99405.50
2018-03-26T12:25:03.025Z,99409.62
2018-03-26T12:27:41.983Z,99408.16
2018-03-26T12:30:21.220Z,99403.30
2018-03-26T12:32:54.785Z,99404.27
2018-03-26T12:35:39.441Z,99401.73
2018-03-26T12:38:12.456Z,99402.64
2018-03-26T12:40:51.427Z,99401.55
2018-03-26T12:43:24.678Z,99406.83
2018-03-26T12:47:02.601Z,99403.67
2018-03-26T12:49:36.332Z,99407.67
2018-03-26T12:52:51.629Z,99409.40
2018-03-26T12:55:27.928Z,99412.09
2018-03-26T12:58:15.389Z,99416.25
2018-03-26T13:01:01.712Z,99417.75
2018-03-26T13:03:35.827Z,99419.16
2018-03-26T13:06:09.539Z,99410.31
2018-03-26T13:08:45.716Z,99425.11
2018-03-26T13:11:19.066Z,99420.05
2018-03-26T13:13:52.662Z,99416.78
2018-03-26T13:16:26.559Z,99416.72
2018-03-26T13:19:01.204Z,99421.50
2018-03-26T13:21:36.919Z,99420.81
2018-03-26T13:24:10.773Z,99426.98
2018-03-26T13:26:46.443Z,99421.68
2018-03-26T13:29:20.930Z,99419.51
2018-03-26T13:31:55.089Z,99428.14
2018-03-26T13:34:28.876Z,99429.49
2018-03-26T13:37:02.276Z,99433.75
2018-03-26T13:39:35.640Z,99433.98
2018-03-26T13:42:09.720Z,99429.78
2018-03-26T13:44:43.615Z,99430.71
2018-03-26T13:47:17.260Z,99434.92
2018-03-26T13:49:52.142Z,99426.75
2018-03-26T13:52:26.320Z,99443.77
2018-03-26T13:55:00.552Z,99448.28
2018-03-26T13:57:34.120Z,99443.91
2018-03-26T14:00:08.218Z,99450.55
2018-03-26T14:02:42.949Z,99454.21
2018-03-26T14:05:19.247Z,99450.16
2018-03-26T14:07:53.963Z,99457.02
2018-03-26T14:12:42.429Z,99455.89
2018-03-26T14:17:55.711Z,99449.60
2018-03-26T14:22:52.036Z,99453.38
2018-03-26T14:25:26.076Z,99440.02
2018-03-26T14:27:59.883Z,99444.54
2018-03-26T14:30:34.238Z,99443.20
2018-03-26T14:33:12.241Z,99439.14
2018-03-26T14:35:49.077Z,99439.92
2018-03-26T14:38:25.573Z,99441.23
2018-03-26T14:40:59.606Z,99433.88
2018-03-26T14:43:35.044Z,99417.73
2018-03-26T14:46:14.167Z,99426.58
2018-03-26T14:48:49.650Z,99423.61
2018-03-26T14:51:22.784Z,99425.23
2018-03-26T14:53:58.100Z,99422.89
2018-03-26T14:56:31.094Z,99418.15
2018-03-26T14:59:04.353Z,99416.64
2018-03-26T15:01:38.486Z,99411.98
2018-03-26T15:04:12.168Z,99416.60
2018-03-26T15:06:45.570Z,99420.38
2018-03-26T15:09:19.316Z,99421.69
2018-03-26T15:11:54.042Z,99424.31
2018-03-26T15:14:27.595Z,99433.55
2018-03-26T15:17:02.035Z,99426.21
2018-03-26T15:19:37.878Z,99430.97
2018-03-26T15:22:13.291Z,99430.78
2018-03-26T15:24:46.509Z,99431.74
2018-03-26T15:27:20.154Z,99430.05
2018-03-26T15:29:53.835Z,99436.46
2018-03-26T15:32:26.960Z,99437.97
2018-03-26T15:35:01.501Z,99434.87
2018-03-26T15:37:35.177Z,99426.62
2018-03-26T15:40:08.254Z,99432.34
2018-03-26T15:42:43.715Z,99423.67
2018-03-26T15:45:17.902Z,99417.44
2018-03-26T15:47:51.206Z,99425.55
2018-03-26T15:50:25.080Z,99433.88
2018-03-26T15:52:58.887Z,99439.94
2018-03-26T15:55:32.726Z,99438.22
2018-03-26T15:58:07.233Z,99439.56
2018-03-26T16:00:47.618Z,99438.52
2018-03-26T16:03:25.188Z,99437.56
2018-03-26T16:05:58.787Z,99429.73
2018-03-26T16:08:32.289Z,99434.39
2018-03-26T16:11:06.773Z,99437.25
2018-03-26T16:13:40.335Z,99442.05
2018-03-26T16:16:13.504Z,99449.97
2018-03-26T16:18:47.963Z,99450.50
2018-03-26T16:21:22.210Z,99450.92
2018-03-26T16:23:55.394Z,99458.54
2018-03-26T16:26:29.655Z,99460.16
2018-03-26T16:29:02.785Z,99465.33
2018-03-26T16:31:35.951Z,99466.56
2018-03-26T16:34:09.517Z,99470.73
2018-03-26T16:36:42.547Z,99462.92
2018-03-26T16:39:15.809Z,99476.83
2018-03-26T16:41:50.379Z,99467.02
2018-03-26T16:44:23.953Z,99471.88
2018-03-26T16:46:57.574Z,99471.25
2018-03-26T16:49:31.930Z,99474.04
2018-03-26T16:52:05.116Z,99477.78
2018-03-26T16:54:38.230Z,99481.56
2018-03-26T16:57:12.847Z,99481.88
2018-03-26T16:59:46.191Z,99487.34
2018-03-26T17:02:19.923Z,99487.70
2018-03-26T17:04:55.892Z,99487.97
2018-03-26T17:07:30.620Z,99485.22
2018-03-26T17:10:06.425Z,99489.00
2018-03-26T17:12:41.529Z,99482.36
2018-03-26T17:15:16.387Z,99492.49
2018-03-26T17:17:50.292Z,99496.22
2018-03-26T17:20:24.813Z,99495.15
2018-03-26T17:22:58.019Z,99497.15
2018-03-26T17:25:31.293Z,99504.64
2018-03-26T17:28:04.523Z,99500.10
2018-03-26T17:30:39.190Z,99500.22
2018-03-26T17:33:12.971Z,99498.41
2018-03-26T17:35:47.041Z,99501.35
2018-03-26T17:38:20.556Z,99500.22
2018-03-26T17:40:55.288Z,99498.72
2018-03-26T17:43:31.976Z,99506.03
2018-03-26T17:46:05.671Z,99511.06
2018-03-26T17:48:46.997Z,99509.64
2018-03-26T17:51:21.181Z,99505.56
2018-03-26T17:53:56.164Z,99512.87
2018-03-26T17:56:29.484Z,99514.47
2018-03-26T17:59:03.238Z,99519.55
2018-03-26T18:01:38.469Z,99515.96
2018-03-26T18:04:13.153Z,99520.73
2018-03-26T18:06:46.658Z,99511.66
2018-03-26T18:09:20.742Z,99504.48
2018-03-26T18:11:53.915Z,99515.84
2018-03-26T18:14:27.500Z,99515.80
2018-03-26T18:17:02.380Z,99514.94
2018-03-26T18:19:35.378Z,99511.30
2018-03-26T18:22:09.795Z,99514.75
2018-03-26T18:24:49.585Z,99515.38
2018-03-26T18:27:24.373Z,99513.31
2018-03-26T18:29:58.530Z,99519.67
2018-03-26T18:32:33.053Z,99519.85
2018-03-26T18:35:06.687Z,99517.30
2018-03-26T18:37:41.032Z,99521.19
2018-03-26T18:40:14.499Z,99523.22
2018-03-26T18:42:47.815Z,99522.17
2018-03-26T18:45:23.514Z,99525.75
2018-03-26T18:48:01.185Z,99523.47
2018-03-26T18:50:37.366Z,99529.98
2018-03-26T18:53:11.219Z,99526.84
2018-03-26T18:55:50.725Z,99534.95
2018-03-26T18:58:28.588Z,99535.58
2018-03-26T19:01:08.378Z,99540.61
2018-03-26T19:03:47.239Z,99534.09
2018-03-26T19:06:23.576Z,99540.67
2018-03-26T19:09:00.622Z,99536.40
2018-03-26T19:11:36.764Z,99538.30
2018-03-26T19:14:11.090Z,99545.91
2018-03-26T19:16:45.859Z,99546.80
2018-03-26T19:19:22.870Z,99546.58
2018-03-26T19:22:02.377Z,99550.91
2018-03-26T19:24:39.429Z,99554.34
2018-03-26T19:27:18.488Z,99555.78
2018-03-26T19:29:56.711Z,99559.26
2018-03-26T19:32:31.590Z,99556.20
2018-03-26T19:35:06.099Z,99558.13
2018-03-26T19:37:39.743Z,99555.69
2018-03-26T19:40:14.966Z,99560.89
2018-03-26T19:42:50.306Z,99554.02
2018-03-26T19:45:26.671Z,99562.39
2018-03-26T19:48:02.400Z,99560.13
2018-03-26T19:50:43.005Z,99560.05
2018-03-26T19:53:17.328Z,99560.81
2018-03-26T19:55:54.936Z,99569.36
2018-03-26T19:58:29.252Z,99576.58
2018-03-26T20:01:03.097Z,99574.84
2018-03-26T20:03:38.201Z,99567.86
2018-03-26T20:06:14.244Z,99573.85
2018-03-26T20:08:47.743Z,99572.69
2018-03-26T20:11:22.933Z,99577.44
2018-03-26T20:14:00.089Z,99572.73
2018-03-26T20:16:38.473Z,99575.58
2018-03-26T20:19:13.413Z,99580.88
2018-03-26T20:21:50.521Z,99582.66
2018-03-26T20:24:28.594Z,99580.41
2018-03-26T20:27:03.248Z,99579.69
2018-03-26T20:29:42.917Z,99577.42
2018-03-26T20:32:22.609Z,99578.73
2018-03-26T20:35:00.661Z,99584.36
2018-03-26T20:37:36.447Z,99581.16
2018-03-26T20:40:10.639Z,99583.63
2018-03-26T20:42:46.473Z,99578.98
2018-03-26T20:45:24.536Z,99577.62
2018-03-26T20:48:01.995Z,99579.86
2018-03-26T20:50:40.716Z,99580.88
2018-03-26T20:53:18.505Z,99584.47
2018-03-26T20:55:54.372Z,99577.45
2018-03-26T20:58:39.004Z,99579.38
2018-03-26T21:01:18.428Z,99577.42
2018-03-26T21:03:56.221Z,99579.74
2018-03-26T21:06:32.287Z,99582.97
2018-03-26T21:09:08.543Z,99583.54
2018-03-26T21:11:45.415Z,99583.11
2018-03-26T21:14:21.295Z,99579.13
2018-03-26T21:16:54.679Z,99581.92
2018-03-26T21:19:28.559Z,99588.26
2018-03-26T21:22:02.525Z,99590.27
2018-03-26T21:24:36.690Z,99593.23
2018-03-26T21:27:10.383Z,99593.87
2018-03-26T21:29:49.315Z,99588.91
2018-03-26T21:32:30.418Z,99593.44
2018-03-26T21:35:05.292Z,99594.74
2018-03-26T21:37:38.738Z,99595.79
2018-03-26T21:40:12.556Z,99594.44
2018-03-26T21:42:46.286Z,99604.23
2018-03-26T21:45:20.112Z,99605.38
2018-03-26T21:47:53.231Z,99596.38
2018-03-26T21:50:26.991Z,99604.66
2018-03-26T21:53:00.033Z,99605.06
2018-03-26T21:55:33.211Z,99598.69
2018-03-26T21:58:06.754Z,99597.77
2018-03-26T22:00:40.270Z,99600.33
2018-03-26T22:03:15.666Z,99602.16
2018-03-26T22:05:49.196Z,99600.64
2018-03-26T22:08:22.417Z,99616.09
2018-03-26T22:10:56.082Z,99611.25
2018-03-26T22:13:30.170Z,99620.30
2018-03-26T22:16:03.871Z,99616.52
2018-03-26T22:18:37.111Z,99616.89
2018-03-26T22:21:11.085Z,99609.44
2018-03-26T22:23:44.229Z,99612.98
2018-03-26T22:26:17.283Z,99609.56
2018-03-26T22:28:51.079Z,99607.84
2018-03-26T22:31:24.309Z,99608.91
2018-03-26T22:33:57.465Z,99611.70
2018-03-26T22:36:32.188Z,99609.75
2018-03-26T22:39:05.494Z,99617.29
2018-03-26T22:41:39.396Z,99612.21
2018-03-26T22:44:12.845Z,99614.89
2018-03-26T22:46:46.005Z,99618.23
2018-03-26T22:49:19.706Z,99621.81
2018-03-26T22:51:55.354Z,99619.63
2018-03-26T22:54:29.274Z,99618.22
2018-03-26T22:57:04.041Z,99623.98
2018-03-26T22:59:37.459Z,99620.21
2018-03-26T23:02:11.167Z,99620.40
2018-03-26T23:04:44.500Z,99624.94
2018-03-26T23:07:17.924Z,99625.94
2018-03-26T23:09:50.962Z,99625.52
2018-03-26T23:12:24.113Z,99627.27
2018-03-26T23:14:57.670Z,99629.97
2018-03-26T23:17:31.091Z,99630.42
2018-03-26T23:20:05.283Z,99631.09
2018-03-26T23:22:47.422Z,99634.33
2018-03-26T23:25:21.163Z,99626.09
2018-03-26T23:27:54.620Z,99630.10
2018-03-26T23:30:28.250Z,99631.48
2018-03-26T23:33:01.651Z,99629.52
2018-03-26T23:35:35.250Z,99632.05
2018-03-26T23:38:09.080Z,99641.68
2018-03-26T23:40:44.083Z,99623.94
2018-03-26T23:43:19.666Z,99630.45
2018-03-26T23:45:53.743Z,99629.98
2018-03-26T23:48:27.285Z,99629.02
2018-03-26T23:51:01.647Z,99631.21
2018-03-26T23:53:34.808Z,99629.34
2018-03-26T23:56:08.661Z,99628.27
2018-03-26T23:58:42.238Z,99618.89
